Observations for STANSTED AIRPORT, United Kingdom (EGSS)

EGSS 130850Z AUTO 12008KT 040V130 9999 NCD 02/00 Q1018  
EGSS 130820Z AUTO 12010KT 070V140 9999 NCD 02/M00 Q1018 
EGSS 130750Z AUTO 12010KT 090V170 9999 NCD 02/M00 Q1017 
EGSS 130720Z AUTO 12009KT 9999 NCD 02/M00 Q1017 
EGSS 130650Z AUTO 12010KT 9999 NCD 02/M00 Q1017 
EGSS 130620Z AUTO 12012KT 9999 NCD 02/M01 Q1017 
EGSS 130550Z AUTO 12013KT 9999 NCD 02/M01 Q1017 
EGSS 130520Z AUTO 12014KT 9999 NCD 03/M01 Q1017 
EGSS 130450Z AUTO 12013KT 9999 NCD 03/M01 Q1017 
EGSS 130420Z AUTO 12011KT 9999 NCD 02/M01 Q1018 
EGSS 130350Z AUTO 13007KT 9999 FEW033/// 01/M01 Q1018   
EGSS 130320Z AUTO 14009KT 9000 SCT031 02/M00 Q1018  
EGSS 130250Z AUTO 14008KT 9999 BKN029 02/00 Q1018   
EGSS 130220Z AUTO 14011KT 9999 FEW021 OVC025 03/00 Q1018
EGSS 130150Z AUTO 14012KT 9999 FEW019 BKN031 03/01 Q1018
EGSS 130120Z AUTO 13013KT 9999 SCT032 03/00 Q1018   
EGSS 130050Z AUTO 13010KT 9999 SCT031 03/00 Q1019   
EGSS 130020Z AUTO 14012KT 9999 SCT034 03/00 Q1019   
EGSS 122350Z AUTO 13013KT 9999 BKN030 04/01 Q1019   
EGSS 122320Z AUTO 13012KT 9999 SCT024 OVC028 04/01 Q1019
EGSS 122250Z AUTO 13010KT 110V180 9999 SCT024 OVC033 04/00 Q1019
EGSS 122220Z AUTO 13009KT 9999 OVC034 04/M00 Q1019  
EGSS 122150Z AUTO 13010KT 9999 OVC034 04/M00 Q1019  
EGSS 122120Z AUTO 13009KT 9999 OVC034 04/00 Q1020   
EGSS 122050Z AUTO 13008KT 9999 OVC032 04/M00 Q1020  
EGSS 122020Z AUTO 12007KT 9999 BKN033 03/M00 Q1020  
EGSS 121950Z AUTO 12006KT 090V170 9999 OVC033 03/M01 Q1021  
EGSS 121920Z AUTO 13007KT 100V160 9999 OVC035 03/M01 Q1021  
EGSS 121850Z AUTO 14006KT 9999 BKN036 03/M02 Q1021  
EGSS 121820Z AUTO 14005KT 120V180 9999 FEW037 02/M02 Q1021  
EGSS 121750Z AUTO 12007KT 9999 FEW038 02/M02 Q1021  
EGSS 121720Z AUTO 12007KT 9999 NCD 02/M02 Q1021 
EGSS 121650Z AUTO 13008KT 110V180 9999 NCD 03/M02 Q1021 
EGSS 121620Z AUTO 13007KT 9999 NCD 03/M02 Q1022 
EGSS 121550Z AUTO 13008KT 9999 NCD 04/M02 Q1022 
EGSS 121520Z AUTO 14011KT 9999 NCD 05/M02 Q1022 
EGSS 121450Z AUTO 14009KT 120V180 9999 FEW033 05/M01 Q1022  
EGSS 121420Z AUTO 13011KT 9999 FEW033 05/M00 Q1022  
EGSS 121350Z AUTO 13010KT 9999 SCT032 06/00 Q1022   
EGSS 121320Z AUTO 13011KT 9999 SCT033 06/00 Q1023   
EGSS 121250Z AUTO 13012KT 9999 NCD 06/M01 Q1023 
EGSS 121220Z AUTO 13012KT 9999 SCT030 06/M01 Q1023  
EGSS 121150Z AUTO 13011KT 9999 NCD 06/M00 Q1023 
EGSS 121120Z AUTO 13014KT 9999 NCD 06/00 Q1023  
EGSS 121050Z AUTO 13012KT 9999 NCD 06/01 Q1023  
EGSS 121020Z AUTO 13012KT 9999 NCD 06/01 Q1023  
EGSS 120950Z AUTO 13011KT 9999 NCD 05/01 Q1023  
EGSS 120920Z AUTO 13010KT 9999 NCD 05/01 Q1023  
EGSS 120850Z AUTO 13010KT 9999 NCD 04/01 Q1023  
EGSS 120820Z AUTO 13009KT 110V180 9999 NCD 04/01 Q1023